Time;durP1;ratioP1;P1;durP2;ratioP2;P2;SDS_P1;SDS_P2;PMS_P1;PMS_P2;Temp;Humidity;BMP_temperature;BMP_pressure;BME280_temperature;BME280_humidity;BME280_pressure;Samples;Min_cycle;Max_cycle;Signal;HPM_P1;HPM_P2
2023/01/07 00:06:38;;;;;;;24.52;10.32;;;7.30;99.90;;;;;;21152111;27;20110;-76
2023/01/07 00:16:40;;;;;;;30.58;12.25;;;7.30;99.90;;;;;;21150601;28;20501;-76
2023/01/07 00:26:41;;;;;;;25.40;12.45;;;7.20;99.90;;;;;;21224880;27;20478;-77
2023/01/07 00:36:45;;;;;;;24.23;10.93;;;7.20;99.90;;;;;;21243783;27;20035;-77
2023/01/07 00:46:46;;;;;;;25.70;11.20;;;7.20;99.90;;;;;;21243227;27;20035;-77
2023/01/07 00:56:47;;;;;;;27.37;11.23;;;7.20;99.90;;;;;;21232298;27;20139;-76
2023/01/07 01:06:48;;;;;;;22.40;10.25;;;7.20;99.90;;;;;;21248234;27;20073;-76
2023/01/07 01:16:51;;;;;;;22.80;11.13;;;7.10;99.90;;;;;;21226502;27;20043;-77
2023/01/07 01:26:56;;;;;;;25.02;10.90;;;7.10;99.90;;;;;;21249945;27;20861;-76
2023/01/07 01:36:57;;;;;;;26.35;11.23;;;7.10;99.90;;;;;;21240333;27;20047;-77
2023/01/07 01:47:02;;;;;;;32.95;12.68;;;7.10;99.90;;;;;;21257927;27;20032;-77
2023/01/07 01:57:07;;;;;;;26.35;11.85;;;7.00;99.90;;;;;;21239101;27;20046;-76
2023/01/07 02:07:17;;;;;;;23.15;11.30;;;7.00;99.90;;;;;;21238122;27;20066;-77
2023/01/07 02:17:56;;;;;;;20.13;10.75;;;7.00;99.90;;;;;;21251971;27;20053;-77
2023/01/07 02:28:25;;;;;;;21.02;10.50;;;7.10;99.90;;;;;;21299348;27;20096;-76
2023/01/07 02:38:59;;;;;;;21.45;10.93;;;7.00;99.90;;;;;;20626983;28;20042;-77
2023/01/07 02:49:07;;;;;;;22.38;10.38;;;6.90;99.90;;;;;;20615554;28;20093;-77
2023/01/07 02:59:46;;;;;;;25.90;10.82;;;6.80;99.90;;;;;;20625530;28;20085;-77
2023/01/07 03:10:01;;;;;;;24.10;11.75;;;6.70;99.90;;;;;;20706650;28;20037;-77
2023/01/07 03:20:06;;;;;;;25.15;11.80;;;6.70;99.90;;;;;;20972850;28;20047;-76
2023/01/07 03:30:11;;;;;;;25.77;12.52;;;6.50;99.90;;;;;;21250440;27;20039;-77
2023/01/07 03:40:16;;;;;;;21.73;11.55;;;6.40;99.90;;;;;;21249398;27;20035;-77
2023/01/07 03:50:17;;;;;;;32.15;12.38;;;6.30;99.90;;;;;;21229075;27;20046;-77
2023/01/07 04:00:19;;;;;;;24.95;11.48;;;6.20;99.90;;;;;;21229838;27;20039;-77
2023/01/07 04:10:28;;;;;;;23.95;11.20;;;6.00;99.90;;;;;;21227565;27;20035;-77
2023/01/07 04:20:29;;;;;;;29.33;12.63;;;6.10;99.90;;;;;;21228535;27;20066;-77
2023/01/07 04:30:32;;;;;;;;;;;6.10;99.90;;;;;;21228659;27;20039;-77
2023/01/07 04:40:33;;;;;;;24.23;12.05;;;6.10;99.90;;;;;;21230216;27;19914;-77
2023/01/07 04:50:37;;;;;;;24.70;12.02;;;6.10;99.90;;;;;;21226063;27;20108;-77
2023/01/07 05:00:38;;;;;;;26.70;12.98;;;6.00;99.90;;;;;;21225241;27;20046;-77
2023/01/07 05:10:39;;;;;;;24.27;11.52;;;6.00;99.90;;;;;;21163060;28;20032;-77
2023/01/07 05:20:42;;;;;;;20.92;9.88;;;6.00;99.90;;;;;;21072284;28;20040;-77
2023/01/07 05:30:45;;;;;;;22.60;10.10;;;5.90;99.90;;;;;;21072018;28;20108;-77
2023/01/07 05:40:49;;;;;;;62.75;28.80;;;6.00;99.90;;;;;;21071705;28;20036;-77
2023/01/07 05:50:53;;;;;;;33.30;15.93;;;5.90;99.90;;;;;;21072614;28;20040;-76
2023/01/07 06:00:54;;;;;;;19.70;9.88;;;6.00;99.90;;;;;;21072195;28;20414;-77
2023/01/07 06:10:54;;;;;;;;;;;5.90;99.90;;;;;;21137960;27;20039;-77
2023/01/07 06:20:56;;;;;;;30.77;16.20;;;5.70;99.90;;;;;;21256014;27;20048;-77
2023/01/07 06:30:56;;;;;;;21.38;10.88;;;5.80;99.90;;;;;;21255291;27;20047;-76
2023/01/07 06:40:57;;;;;;;;;;;5.60;99.90;;;;;;21258072;27;20081;-77
2023/01/07 06:50:58;;;;;;;21.38;10.80;;;5.60;99.90;;;;;;21253550;27;19980;-76
2023/01/07 07:01:06;;;;;;;;;;;5.60;99.90;;;;;;21253843;27;20035;-77
2023/01/07 07:11:09;;;;;;;34.05;16.80;;;5.70;99.90;;;;;;21239431;27;19911;-77
2023/01/07 07:21:11;;;;;;;23.02;11.68;;;5.60;99.90;;;;;;21252859;27;20031;-77
2023/01/07 07:31:12;;;;;;;23.77;11.93;;;5.50;99.90;;;;;;21259227;27;20039;-77
2023/01/07 07:41:13;;;;;;;;;;;5.40;99.90;;;;;;21264419;27;20046;-78
2023/01/07 07:51:13;;;;;;;25.43;12.30;;;5.30;99.90;;;;;;21271128;27;19911;-78
2023/01/07 08:01:16;;;;;;;38.25;15.75;;;5.50;99.90;;;;;;21259660;27;20102;-79
2023/01/07 08:11:17;;;;;;;71.60;31.17;;;5.60;99.90;;;;;;21082121;28;20043;-79
2023/01/07 08:21:18;;;;;;;;;;;5.70;99.90;;;;;;21086679;28;20040;-79
2023/01/07 08:31:19;;;;;;;57.75;24.85;;;5.90;99.90;;;;;;21140379;28;19916;-79
2023/01/07 08:41:22;;;;;;;47.27;21.63;;;6.10;99.90;;;;;;21294858;27;20493;-78
2023/01/07 08:51:22;;;;;;;23.38;13.50;;;6.30;99.90;;;;;;21251693;27;20643;-78
2023/01/07 09:01:23;;;;;;;25.60;14.47;;;6.50;99.90;;;;;;21255942;27;20043;-78
2023/01/07 09:11:24;;;;;;;28.60;14.57;;;6.80;99.90;;;;;;21247774;27;20130;-78
2023/01/07 09:21:25;;;;;;;21.70;10.67;;;8.90;99.90;;;;;;21195040;28;20402;-77
2023/01/07 09:31:25;;;;;;;14.13;9.00;;;9.50;99.90;;;;;;21233955;28;20130;-78
2023/01/07 09:41:54;;;;;;;18.33;8.57;;;10.80;99.90;;;;;;21230459;28;20035;-76
2023/01/07 09:52:19;;;;;;;16.95;7.65;;;12.40;99.90;;;;;;21240757;27;20099;-77
2023/01/07 10:02:40;;;;;;;11.50;7.03;;;13.40;99.90;;;;;;21055858;28;20044;-79
2023/01/07 10:13:05;;;;;;;11.97;6.57;;;13.60;99.90;;;;;;21087697;28;20052;-78
2023/01/07 10:23:27;;;;;;;9.38;5.82;;;13.80;99.90;;;;;;21062991;28;20037;-77
2023/01/07 10:33:32;;;;;;;9.00;6.90;;;13.70;99.90;;;;;;21240804;27;20054;-78
2023/01/07 10:43:45;;;;;;;13.68;7.45;;;14.00;99.90;;;;;;21251464;27;20039;-78
2023/01/07 10:54:23;;;;;;;10.68;6.30;;;13.80;99.90;;;;;;21342531;27;20041;-78
2023/01/07 11:04:25;;;;;;;9.75;6.63;;;15.00;99.90;;;;;;21242051;27;20051;-78
2023/01/07 11:14:35;;;;;;;11.20;6.30;;;15.00;99.90;;;;;;21264665;27;20046;-78
2023/01/07 11:24:36;;;;;;;8.75;6.40;;;14.80;99.90;;;;;;21266015;27;20114;-76
2023/01/07 11:34:52;;;;;;;13.60;7.27;;;13.50;99.90;;;;;;21244590;27;20070;-78
2023/01/07 11:45:10;;;;;;;9.50;5.78;;;13.40;99.90;;;;;;21260470;27;20115;-78
2023/01/07 11:55:18;;;;;;;9.57;6.00;;;14.00;99.90;;;;;;21251160;27;20031;-78
2023/01/07 12:05:26;;;;;;;10.32;6.30;;;14.10;99.90;;;;;;21281590;27;20045;-78
2023/01/07 12:15:30;;;;;;;17.77;6.05;;;14.60;99.90;;;;;;21262482;27;20046;-78
2023/01/07 12:25:56;;;;;;;8.70;5.43;;;15.20;99.90;;;;;;21329196;27;20031;-79
2023/01/07 12:36:04;;;;;;;6.97;4.50;;;15.90;99.90;;;;;;21260990;27;20521;-78
2023/01/07 12:46:11;;;;;;;7.15;4.63;;;15.90;99.90;;;;;;21332787;27;20039;-79
2023/01/07 12:56:19;;;;;;;7.53;5.00;;;16.80;99.90;;;;;;21341791;27;20046;-79
2023/01/07 13:06:41;;;;;;;5.78;3.80;;;17.50;99.90;;;;;;21260710;27;20046;-79
2023/01/07 13:16:42;;;;;;;5.10;3.40;;;17.40;99.90;;;;;;21242704;27;20043;-79
2023/01/07 13:26:53;;;;;;;5.67;3.73;;;17.30;99.90;;;;;;21269935;27;20045;-77
2023/01/07 13:37:04;;;;;;;55.17;23.77;;;16.20;99.90;;;;;;21243420;27;20039;-79
2023/01/07 13:47:08;;;;;;;15.85;7.72;;;16.80;99.90;;;;;;21272496;27;20058;-79
2023/01/07 13:57:38;;;;;;;6.70;3.85;;;16.50;99.90;;;;;;21279711;27;20122;-79
2023/01/07 14:07:57;;;;;;;5.13;3.13;;;15.60;99.90;;;;;;21253003;27;20031;-78
2023/01/07 14:18:27;;;;;;;5.78;3.53;;;14.60;99.90;;;;;;21276097;27;20504;-78
2023/01/07 14:28:49;;;;;;;5.38;3.67;;;13.20;99.90;;;;;;21247299;27;20108;-78
2023/01/07 14:38:59;;;;;;;6.35;3.80;;;12.60;99.90;;;;;;21173221;28;20526;-79
2023/01/07 14:49:02;;;;;;;10.88;4.55;;;12.30;99.90;;;;;;21179670;28;20047;-79
2023/01/07 14:59:25;;;;;;;7.95;4.22;;;12.70;99.90;;;;;;21197133;27;20043;-79
2023/01/07 15:20:04;;;;;;;7.75;4.22;;;12.50;99.90;;;;;;21254135;27;20050;-78
2023/01/07 15:30:29;;;;;;;5.22;2.97;;;11.10;99.90;;;;;;21271581;27;20551;-78
2023/01/07 15:40:30;;;;;;;6.47;4.22;;;10.00;99.90;;;;;;21283355;27;20042;-79
2023/01/07 15:50:33;;;;;;;8.68;3.88;;;9.20;99.90;;;;;;21269638;27;20034;-79
2023/01/07 16:00:35;;;;;;;6.85;3.78;;;8.90;99.90;;;;;;21275980;27;20035;-79
2023/01/07 16:10:37;;;;;;;7.50;3.95;;;8.70;99.90;;;;;;21273912;27;20064;-79
2023/01/07 16:20:47;;;;;;;10.10;4.78;;;8.40;99.90;;;;;;21272285;27;20038;-79
2023/01/07 16:30:50;;;;;;;7.67;3.77;;;8.60;99.90;;;;;;21259538;27;20070;-77
2023/01/07 16:40:51;;;;;;;9.18;4.35;;;7.80;99.90;;;;;;21252198;27;20059;-77
2023/01/07 16:50:54;;;;;;;7.60;4.45;;;7.50;99.90;;;;;;21253255;27;20442;-76
2023/01/07 17:00:58;;;;;;;10.35;5.10;;;7.30;99.90;;;;;;21249302;27;20085;-78
2023/01/07 17:11:08;;;;;;;10.90;5.28;;;7.30;99.90;;;;;;21262979;27;20039;-79
2023/01/07 17:21:31;;;;;;;9.27;6.13;;;7.00;99.90;;;;;;21211774;27;20048;-80
2023/01/07 17:31:32;;;;;;;17.63;6.70;;;6.70;99.90;;;;;;21252154;28;20507;-79
2023/01/07 17:52:01;;;;;;;11.77;6.38;;;6.60;99.90;;;;;;21062276;28;20340;-78
2023/01/07 18:02:02;;;;;;;;;;;6.50;99.90;;;;;;21053671;28;20111;-79
2023/01/07 18:22:24;;;;;;;14.75;7.22;;;6.40;99.90;;;;;;21226040;27;20035;-79
2023/01/07 18:32:24;;;;;;;12.52;6.72;;;5.80;99.90;;;;;;21272112;27;20381;-77
2023/01/07 18:42:25;;;;;;;;;;;5.90;99.90;;;;;;21273610;27;20034;-78
2023/01/07 18:52:27;;;;;;;11.07;6.90;;;5.60;99.90;;;;;;21263066;27;19929;-77
2023/01/07 19:02:28;;;;;;;13.82;6.13;;;5.40;99.90;;;;;;21247516;27;20268;-79
2023/01/07 19:12:29;;;;;;;11.82;6.95;;;5.20;99.90;;;;;;21212555;27;20152;-79
2023/01/07 19:22:30;;;;;;;16.27;7.20;;;5.30;99.90;;;;;;21242883;27;20031;-79
2023/01/07 19:32:32;;;;;;;14.40;7.25;;;5.20;99.90;;;;;;21298152;27;20559;-79
2023/01/07 19:42:33;;;;;;;14.90;7.38;;;5.10;99.90;;;;;;21305950;27;20055;-78
2023/01/07 19:52:34;;;;;;;17.60;7.10;;;5.20;99.90;;;;;;21250188;27;20035;-79
2023/01/07 20:02:36;;;;;;;13.88;6.55;;;4.90;99.90;;;;;;21251931;27;20050;-79
2023/01/07 20:12:38;;;;;;;16.55;7.93;;;4.90;99.90;;;;;;21254989;27;20053;-78
2023/01/07 20:22:40;;;;;;;17.52;6.93;;;4.70;99.90;;;;;;21265294;27;20035;-78
2023/01/07 20:32:42;;;;;;;15.02;8.32;;;4.50;99.90;;;;;;21238314;27;20046;-77
2023/01/07 20:42:42;;;;;;;13.90;7.63;;;4.50;99.90;;;;;;21259761;27;20477;-79
2023/01/07 20:52:43;;;;;;;15.20;7.72;;;4.50;99.90;;;;;;21251316;27;20082;-78
2023/01/07 21:02:44;;;;;;;18.25;8.93;;;4.30;99.90;;;;;;21248555;27;20163;-79
2023/01/07 21:12:45;;;;;;;12.98;7.05;;;4.10;99.90;;;;;;20999047;28;20076;-78
2023/01/07 21:22:46;;;;;;;15.05;8.48;;;4.20;99.90;;;;;;20990442;28;20063;-78
2023/01/07 21:32:49;;;;;;;12.98;7.95;;;4.10;99.90;;;;;;20989250;28;20049;-79
2023/01/07 21:42:51;;;;;;;18.40;8.27;;;4.10;99.90;;;;;;21203150;27;20039;-79
2023/01/07 21:52:52;;;;;;;19.08;9.18;;;4.00;99.90;;;;;;21265413;27;20092;-79
2023/01/07 22:02:53;;;;;;;12.77;7.43;;;4.10;99.90;;;;;;21265826;27;20046;-78
2023/01/07 22:12:54;;;;;;;22.90;8.82;;;3.90;99.90;;;;;;21186118;27;20039;-79
2023/01/07 22:22:55;;;;;;;20.33;8.88;;;3.70;99.90;;;;;;21268909;27;20035;-79
2023/01/07 22:32:56;;;;;;;14.10;7.57;;;3.70;99.90;;;;;;21272400;27;20485;-79
2023/01/07 22:43:04;;;;;;;16.00;7.57;;;3.80;99.90;;;;;;21267717;27;20031;-79
2023/01/07 22:53:07;;;;;;;14.48;7.60;;;3.70;99.90;;;;;;21216430;27;20044;-79
2023/01/07 23:03:09;;;;;;;33.42;13.10;;;3.60;99.90;;;;;;21194385;27;20036;-79
2023/01/07 23:13:10;;;;;;;17.60;8.20;;;3.40;99.90;;;;;;21264808;27;20071;-79
2023/01/07 23:23:12;;;;;;;14.57;7.25;;;3.10;99.90;;;;;;21265414;27;20036;-79
2023/01/07 23:33:12;;;;;;;14.80;7.63;;;3.00;99.90;;;;;;21249846;27;20043;-79
2023/01/07 23:43:14;;;;;;;16.25;7.90;;;3.10;99.90;;;;;;21274800;27;20046;-79
2023/01/07 23:53:16;;;;;;;14.23;7.47;;;3.30;99.90;;;;;;21255669;27;20070;-79
